Time;durP1;ratioP1;P1;durP2;ratioP2;P2;SDS_P1;SDS_P2;PMS_P1;PMS_P2;Temp;Humidity;BMP_temperature;BMP_pressure;BME280_temperature;BME280_humidity;BME280_pressure;Samples;Min_cycle;Max_cycle;Signal;HPM_P1;HPM_P2
2023/09/19 00:00:34;;;;;;;9.80;4.53;;;;;;;25.69;57.65;98659.81;2072252;28;20057;-62
2023/09/19 00:01:37;;;;;;;13.30;5.40;;;;;;;25.66;58.07;98666.59;2074569;28;20052;-62
2023/09/19 00:02:40;;;;;;;10.52;4.47;;;;;;;25.69;57.71;98667.97;2064709;28;20060;-62
2023/09/19 00:03:41;;;;;;;11.57;4.35;;;;;;;25.72;58.10;98664.75;2070785;28;20052;-61
2023/09/19 00:04:44;;;;;;;10.20;4.78;;;;;;;25.77;57.24;98673.81;2070603;28;20072;-63
2023/09/19 00:05:45;;;;;;;11.48;4.65;;;;;;;25.80;57.55;98667.06;2070666;28;20487;-63
2023/09/19 00:06:47;;;;;;;10.50;5.25;;;;;;;25.81;57.48;98674.13;2073365;28;20137;-63
2023/09/19 00:07:48;;;;;;;8.48;4.57;;;;;;;25.78;57.49;98669.19;2073500;28;20053;-63
2023/09/19 00:08:50;;;;;;;9.68;4.93;;;;;;;25.80;57.14;98675.19;2074781;28;20064;-62
2023/09/19 00:09:51;;;;;;;12.77;5.00;;;;;;;25.81;57.47;98665.97;2074463;28;20049;-63
2023/09/19 00:10:55;;;;;;;14.75;4.68;;;;;;;25.80;57.30;98658.91;2074640;28;20049;-63
2023/09/19 00:11:56;;;;;;;12.68;4.88;;;;;;;25.76;57.48;98671.31;2072910;28;20476;-63
2023/09/19 00:12:59;;;;;;;11.13;4.43;;;;;;;25.72;57.69;98665.56;2073836;28;20052;-62
2023/09/19 00:14:02;;;;;;;13.70;4.15;;;;;;;25.51;58.65;98664.44;2070864;28;20428;-62
2023/09/19 00:15:04;;;;;;;13.40;4.38;;;;;;;25.44;58.24;98668.41;2074844;28;20060;-63
2023/09/19 00:16:10;;;;;;;13.82;4.85;;;;;;;25.38;58.72;98665.63;2066288;28;20527;-63
2023/09/19 00:17:11;;;;;;;9.88;4.47;;;;;;;25.31;58.68;98664.94;2073364;28;20561;-63
2023/09/19 00:18:15;;;;;;;15.93;4.88;;;;;;;25.27;59.27;98660.25;2072249;28;20092;-62
2023/09/19 00:19:16;;;;;;;15.70;6.95;;;;;;;25.25;59.25;98652.34;2072469;28;20140;-62
2023/09/19 00:20:18;;;;;;;12.73;4.35;;;;;;;25.26;58.61;98655.91;2069626;28;20459;-62
2023/09/19 00:21:19;;;;;;;11.60;6.40;;;;;;;25.26;58.93;98661.31;2065069;28;20420;-63
2023/09/19 00:22:21;;;;;;;10.20;4.72;;;;;;;25.32;58.87;98660.31;2072268;28;20049;-62
2023/09/19 00:23:22;;;;;;;11.30;4.72;;;;;;;25.29;58.82;98656.22;2072789;28;20041;-62
2023/09/19 00:24:23;;;;;;;15.90;4.90;;;;;;;25.21;59.38;98658.53;2073240;28;20068;-62
2023/09/19 00:25:26;;;;;;;12.55;5.75;;;;;;;25.25;58.50;98663.22;2073203;28;20057;-62
2023/09/19 00:26:30;;;;;;;10.07;4.30;;;;;;;25.36;58.16;98665.03;2073727;28;20050;-62
2023/09/19 00:27:33;;;;;;;13.32;4.35;;;;;;;25.47;58.41;98657.88;2072217;28;20560;-62
2023/09/19 00:28:35;;;;;;;12.40;4.68;;;;;;;25.53;57.72;98661.47;2068415;28;20053;-63
2023/09/19 00:29:37;;;;;;;14.07;5.60;;;;;;;25.56;57.82;98656.38;2074089;28;20107;-62
2023/09/19 00:30:39;;;;;;;9.95;4.15;;;;;;;25.56;57.95;98666.41;2071825;28;20550;-62
2023/09/19 00:31:43;;;;;;;19.05;4.82;;;;;;;25.57;57.38;98665.34;2071166;28;20068;-62
2023/09/19 00:32:44;;;;;;;20.15;5.47;;;;;;;25.50;58.16;98662.81;2072282;28;20054;-62
2023/09/19 00:33:48;;;;;;;13.27;4.32;;;;;;;25.45;57.82;98660.00;2068047;28;20128;-62
2023/09/19 00:34:49;;;;;;;11.52;5.25;;;;;;;25.41;58.33;98653.44;2072977;28;20081;-62
2023/09/19 00:35:52;;;;;;;10.80;5.00;;;;;;;25.42;58.39;98653.16;2073400;28;20052;-63
2023/09/19 00:36:53;;;;;;;8.55;4.30;;;;;;;25.41;57.72;98658.88;2070945;28;20057;-62
2023/09/19 00:37:55;;;;;;;13.10;4.65;;;;;;;25.38;58.41;98653.91;2071720;28;20067;-63
2023/09/19 00:38:57;;;;;;;11.80;4.72;;;;;;;25.25;58.67;98659.69;2070642;28;20114;-62
2023/09/19 00:39:58;;;;;;;14.10;4.18;;;;;;;25.31;58.30;98647.84;2074161;28;20500;-63
2023/09/19 00:41:00;;;;;;;11.10;4.80;;;;;;;25.35;58.17;98646.25;2072944;28;20045;-63
2023/09/19 00:42:05;;;;;;;11.45;3.97;;;;;;;25.34;58.44;98642.72;2072614;28;20045;-63
2023/09/19 00:43:08;;;;;;;12.60;4.97;;;;;;;25.39;57.95;98653.66;2071927;28;20144;-62
2023/09/19 00:44:10;;;;;;;8.40;3.97;;;;;;;25.43;57.78;98651.28;2066987;28;20049;-62
2023/09/19 00:45:16;;;;;;;11.88;4.13;;;;;;;25.41;58.33;98650.72;2071459;28;20062;-62
2023/09/19 00:46:17;;;;;;;11.48;3.92;;;;;;;25.39;57.82;98661.00;2074388;28;20053;-62
2023/09/19 00:47:18;;;;;;;14.68;4.93;;;;;;;25.40;58.17;98652.59;2067778;28;20054;-62
2023/09/19 00:48:21;;;;;;;20.50;5.03;;;;;;;25.42;58.16;98649.63;2068763;28;20049;-62
2023/09/19 00:49:22;;;;;;;12.25;6.03;;;;;;;25.43;57.87;98648.56;2074146;28;20049;-62
2023/09/19 00:50:26;;;;;;;11.73;5.03;;;;;;;25.44;58.20;98647.50;2069581;28;20073;-62
2023/09/19 00:51:27;;;;;;;14.02;4.07;;;;;;;25.48;57.73;98653.25;2070986;28;20050;-62
2023/09/19 00:52:33;;;;;;;9.18;4.53;;;;;;;25.51;57.79;98647.31;2070160;28;20459;-62
2023/09/19 00:53:34;;;;;;;10.73;4.32;;;;;;;25.48;57.66;98654.06;2068676;28;20635;-62
2023/09/19 00:54:36;;;;;;;11.48;4.78;;;;;;;25.53;57.30;98661.47;2070570;28;20049;-63
2023/09/19 00:55:38;;;;;;;17.52;4.93;;;;;;;25.51;57.47;98650.84;2068308;28;20141;-62
2023/09/19 00:56:41;;;;;;;13.05;4.38;;;;;;;25.57;57.18;98654.47;2069954;28;20050;-63
2023/09/19 00:57:43;;;;;;;12.82;4.70;;;;;;;25.55;57.78;98646.59;2073563;28;20057;-62
2023/09/19 00:58:46;;;;;;;8.85;5.20;;;;;;;25.55;57.11;98649.31;2069726;28;20175;-62
2023/09/19 00:59:50;;;;;;;17.88;5.07;;;;;;;25.47;57.76;98647.00;2071097;28;21670;-63
2023/09/19 01:00:54;;;;;;;11.70;4.65;;;;;;;25.44;58.01;98652.13;2069483;28;20060;-62
2023/09/19 01:01:56;;;;;;;22.35;5.57;;;;;;;25.33;58.32;98645.69;2069839;28;20090;-62
2023/09/19 01:02:58;;;;;;;11.23;5.80;;;;;;;25.35;58.34;98644.38;2058700;28;20053;-63
2023/09/19 01:03:59;;;;;;;9.73;4.15;;;;;;;25.42;58.13;98646.94;2061805;28;20042;-62
2023/09/19 01:05:04;;;;;;;10.00;4.00;;;;;;;25.45;57.60;98641.00;2067962;28;20459;-63
2023/09/19 01:06:05;;;;;;;10.70;4.72;;;;;;;25.43;57.69;98634.97;2072528;28;20064;-63
2023/09/19 01:07:08;;;;;;;9.30;4.00;;;;;;;25.43;58.11;98634.97;2062819;28;20067;-63
2023/09/19 01:08:11;;;;;;;11.07;5.38;;;;;;;25.47;57.98;98633.44;2069975;28;20128;-63
2023/09/19 01:09:13;;;;;;;13.23;4.93;;;;;;;25.50;57.61;98624.78;2070723;28;20042;-62
2023/09/19 01:10:15;;;;;;;13.60;4.95;;;;;;;25.53;57.28;98629.72;2071960;28;20037;-62
2023/09/19 01:11:32;;;;;;;8.05;4.07;;;;;;;25.50;57.70;98621.25;2069127;28;20050;-63
2023/09/19 01:12:48;;;;;;;12.73;5.15;;;;;;;25.52;57.48;98627.22;2071501;28;20072;-62
2023/09/19 01:13:59;;;;;;;9.93;3.97;;;;;;;25.52;57.25;98625.38;2061774;28;20054;-63
2023/09/19 01:15:06;;;;;;;13.18;5.93;;;;;;;25.57;57.17;98630.03;2055323;28;20042;-63
2023/09/19 01:16:20;;;;;;;6.63;4.65;;;;;;;25.58;57.32;98628.97;2058802;28;21807;-62
2023/09/19 01:17:27;;;;;;;12.27;4.75;;;;;;;25.52;57.55;98619.09;2067048;28;20053;-63
2023/09/19 01:18:40;;;;;;;12.98;4.57;;;;;;;25.49;57.73;98625.88;2071443;28;20055;-62
2023/09/19 01:20:23;;;;;;;14.60;4.78;;;;;;;25.48;57.54;98620.66;2070865;28;20050;-63
2023/09/19 01:21:31;;;;;;;6.57;3.90;;;;;;;25.44;57.93;98612.22;2041043;28;20051;-62
2023/09/19 01:22:45;;;;;;;9.20;5.22;;;;;;;25.46;57.76;98618.19;2035106;28;20158;-62
2023/09/19 01:24:16;;;;;;;13.00;4.75;;;;;;;25.49;57.35;98615.00;2038960;28;20062;-63
2023/09/19 01:25:35;;;;;;;9.80;6.05;;;;;;;25.48;57.44;98607.91;2040558;28;20051;-63
2023/09/19 01:26:57;;;;;;;10.00;4.15;;;;;;;25.43;57.27;98615.97;2040031;28;20135;-62
2023/09/19 01:28:14;;;;;;;14.15;4.90;;;;;;;25.43;57.48;98615.97;2068556;28;20069;-63
2023/09/19 01:29:32;;;;;;;13.23;5.18;;;;;;;25.42;57.36;98611.63;2073923;28;20049;-62
2023/09/19 01:30:39;;;;;;;13.88;4.85;;;;;;;25.41;58.08;98607.28;2068477;28;20087;-62
2023/09/19 01:31:46;;;;;;;8.93;4.32;;;;;;;25.37;58.01;98612.38;2068810;28;20053;-62
2023/09/19 01:32:47;;;;;;;12.55;6.38;;;;;;;25.41;57.93;98610.81;2068366;28;20676;-63
2023/09/19 01:33:57;;;;;;;12.52;5.18;;;;;;;25.47;57.27;98614.41;2072696;28;20049;-63
2023/09/19 01:35:03;;;;;;;16.63;5.25;;;;;;;25.48;57.68;98617.97;2072391;28;20084;-62
2023/09/19 01:36:05;;;;;;;12.80;5.43;;;;;;;25.50;57.62;98615.81;2071855;28;20053;-62
2023/09/19 01:37:07;;;;;;;13.40;4.72;;;;;;;25.55;57.13;98622.16;2070434;28;20060;-62
2023/09/19 01:38:11;;;;;;;10.18;5.28;;;;;;;25.58;57.29;98618.94;2067137;28;20740;-62
2023/09/19 01:39:15;;;;;;;9.05;4.75;;;;;;;25.61;57.32;98621.13;2071108;28;20099;-63
2023/09/19 01:40:19;;;;;;;8.15;4.13;;;;;;;25.62;57.22;98621.97;2069934;28;20046;-62
2023/09/19 01:41:26;;;;;;;14.05;5.95;;;;;;;25.63;56.77;98618.16;2070488;28;20390;-63
2023/09/19 01:42:38;;;;;;;14.88;5.65;;;;;;;25.57;56.81;98616.44;2068647;28;20053;-61
2023/09/19 01:43:43;;;;;;;16.13;5.20;;;;;;;25.52;57.54;98614.50;2071235;28;20456;-63
2023/09/19 01:44:55;;;;;;;17.40;5.30;;;;;;;25.50;57.50;98613.09;2070588;28;20107;-62
2023/09/19 01:46:05;;;;;;;16.02;4.47;;;;;;;25.46;57.23;98617.38;2070669;28;20052;-62
2023/09/19 01:47:19;;;;;;;9.45;3.83;;;;;;;25.41;57.34;98607.28;2068509;28;20388;-62
2023/09/19 01:48:28;;;;;;;10.52;4.95;;;;;;;25.37;57.65;98609.66;2070178;28;20041;-62
2023/09/19 01:49:39;;;;;;;10.13;4.53;;;;;;;25.42;57.13;98615.16;2069851;28;20074;-62
2023/09/19 01:50:49;;;;;;;13.57;4.82;;;;;;;25.45;57.29;98616.56;2071667;28;20060;-62
2023/09/19 01:51:57;;;;;;;10.07;5.03;;;;;;;25.42;57.80;98611.63;2071166;28;20049;-62
2023/09/19 01:53:05;;;;;;;10.45;4.30;;;;;;;25.47;57.08;98613.59;2071908;28;21382;-62
2023/09/19 01:54:12;;;;;;;13.50;4.43;;;;;;;25.32;58.25;98611.47;2071048;28;20069;-62
2023/09/19 01:55:17;;;;;;;9.70;4.97;;;;;;;25.16;58.55;98616.66;2070901;28;20052;-62
2023/09/19 01:56:30;;;;;;;10.05;4.50;;;;;;;25.09;58.99;98613.25;2073543;28;20045;-62
2023/09/19 01:57:40;;;;;;;14.18;4.50;;;;;;;25.13;58.59;98616.28;2071872;28;20046;-62
2023/09/19 01:58:47;;;;;;;12.02;5.22;;;;;;;25.16;58.27;98608.53;2068615;28;20049;-62
2023/09/19 01:59:52;;;;;;;13.60;3.92;;;;;;;25.22;58.32;98616.75;2071967;28;20049;-62
2023/09/19 02:00:57;;;;;;;15.13;5.07;;;;;;;25.28;58.19;98613.84;2069107;28;20144;-62
2023/09/19 02:02:01;;;;;;;13.93;5.10;;;;;;;25.32;57.72;98612.28;2070248;28;20045;-63
2023/09/19 02:03:04;;;;;;;12.23;5.10;;;;;;;25.38;57.75;98621.31;2057226;28;20054;-63
2023/09/19 02:04:05;;;;;;;10.57;4.22;;;;;;;25.39;57.36;98621.09;2061833;28;20057;-63
2023/09/19 02:05:08;;;;;;;14.73;5.85;;;;;;;25.38;57.54;98624.88;2066219;28;20512;-62
2023/09/19 02:06:14;;;;;;;13.25;5.30;;;;;;;25.33;57.57;98621.28;2070137;28;20077;-62
2023/09/19 02:07:16;;;;;;;11.75;4.78;;;;;;;25.42;57.07;98625.19;2070461;28;20065;-61
2023/09/19 02:08:18;;;;;;;13.88;4.60;;;;;;;25.42;57.14;98628.72;2071050;28;20037;-63
2023/09/19 02:09:20;;;;;;;10.35;4.63;;;;;;;25.41;57.69;98631.72;2073238;28;20062;-62
2023/09/19 02:10:21;;;;;;;13.60;5.32;;;;;;;25.45;57.00;98629.31;2068307;28;20504;-63
2023/09/19 02:11:23;;;;;;;12.30;4.00;;;;;;;25.44;57.59;98631.22;2072573;28;20053;-63
2023/09/19 02:12:24;;;;;;;8.82;3.90;;;;;;;25.42;56.85;98626.03;2070142;28;20049;-62
2023/09/19 02:13:28;;;;;;;10.45;4.82;;;;;;;25.43;57.14;98629.56;2061449;28;20447;-63
2023/09/19 02:14:36;;;;;;;10.95;4.57;;;;;;;25.41;57.54;98629.00;2070050;28;20046;-63
2023/09/19 02:15:38;;;;;;;8.98;4.60;;;;;;;25.39;57.22;98628.41;2068709;28;20904;-62
2023/09/19 02:16:39;;;;;;;12.55;5.10;;;;;;;25.42;57.26;98625.19;2072030;28;20081;-62
2023/09/19 02:17:43;;;;;;;11.90;5.65;;;;;;;25.35;57.74;98627.25;2072247;28;20139;-63
2023/09/19 02:18:45;;;;;;;9.23;4.80;;;;;;;25.34;57.76;98636.47;2069138;28;20550;-62
2023/09/19 02:19:47;;;;;;;9.32;3.75;;;;;;;25.29;58.00;98634.50;2071033;28;20084;-62
2023/09/19 02:20:48;;;;;;;11.52;4.28;;;;;;;25.27;57.76;98630.38;2071505;28;20508;-63
2023/09/19 02:21:50;;;;;;;12.13;4.20;;;;;;;25.27;57.56;98635.81;2072793;28;20055;-62
2023/09/19 02:22:54;;;;;;;14.43;4.55;;;;;;;25.28;57.77;98634.75;2068677;28;20103;-62
2023/09/19 02:23:56;;;;;;;15.20;4.40;;;;;;;25.25;57.83;98632.53;2071804;28;20054;-62
2023/09/19 02:24:58;;;;;;;13.68;4.30;;;;;;;25.21;57.95;98637.63;2061557;28;20053;-63
2023/09/19 02:26:00;;;;;;;13.02;4.40;;;;;;;25.16;57.72;98635.66;2071340;28;20132;-62
2023/09/19 02:27:04;;;;;;;7.22;3.78;;;;;;;25.09;58.46;98634.97;2071353;28;20064;-62
2023/09/19 02:28:06;;;;;;;16.77;5.05;;;;;;;24.98;58.81;98623.13;2062133;28;20053;-62
2023/09/19 02:29:07;;;;;;;9.98;3.67;;;;;;;25.05;58.26;98622.97;2072983;28;20479;-62
2023/09/19 02:30:09;;;;;;;11.68;3.83;;;;;;;25.11;58.28;98621.97;2074776;28;20049;-63
2023/09/19 02:31:11;;;;;;;9.63;5.53;;;;;;;25.10;58.50;98622.22;2070947;28;20045;-63
2023/09/19 02:32:12;;;;;;;10.93;4.68;;;;;;;25.13;57.97;98614.41;2070771;28;20102;-63
2023/09/19 02:33:15;;;;;;;13.05;4.10;;;;;;;25.25;57.55;98618.97;2068532;28;20050;-62
2023/09/19 02:34:16;;;;;;;10.48;4.57;;;;;;;25.29;57.22;98614.69;2071882;28;20041;-62
2023/09/19 02:35:19;;;;;;;8.98;3.97;;;;;;;25.33;57.63;98615.84;2067879;28;20420;-62
2023/09/19 02:36:20;;;;;;;20.05;5.15;;;;;;;25.37;57.52;98616.97;2071838;28;20045;-63
2023/09/19 02:37:22;;;;;;;19.58;4.93;;;;;;;25.43;57.04;98615.97;2068642;28;20520;-62
2023/09/19 02:38:24;;;;;;;13.93;5.22;;;;;;;25.41;56.94;98610.81;2069624;28;20144;-63
2023/09/19 02:39:25;;;;;;;7.05;4.40;;;;;;;25.36;57.24;98607.19;2070141;28;20504;-63
2023/09/19 02:40:28;;;;;;;7.97;4.40;;;;;;;25.31;57.57;98612.53;2070445;28;20083;-63
2023/09/19 02:41:32;;;;;;;10.55;5.20;;;;;;;25.36;57.15;98612.63;2073488;28;20053;-63
2023/09/19 02:42:34;;;;;;;12.02;4.57;;;;;;;25.34;57.08;98612.03;2065644;28;20053;-62
2023/09/19 02:43:36;;;;;;;9.20;4.05;;;;;;;25.31;56.88;98607.13;2071456;28;20084;-63
2023/09/19 02:44:38;;;;;;;13.07;4.32;;;;;;;25.27;57.29;98611.38;2072880;28;22045;-63
2023/09/19 02:45:39;;;;;;;10.65;3.75;;;;;;;25.26;57.39;98612.47;2070629;28;20136;-63
2023/09/19 02:46:42;;;;;;;12.30;4.43;;;;;;;25.27;57.13;98604.09;2072997;28;20059;-62
2023/09/19 02:47:45;;;;;;;15.25;4.97;;;;;;;25.31;57.00;98604.41;2073168;28;20100;-62
2023/09/19 02:48:48;;;;;;;8.30;4.07;;;;;;;25.35;57.41;98603.66;2071777;28;20045;-63
2023/09/19 02:49:50;;;;;;;5.50;3.85;;;;;;;25.36;57.20;98599.06;2074022;28;20045;-62
2023/09/19 02:50:52;;;;;;;9.93;3.47;;;;;;;25.30;57.05;98603.59;2070128;28;20077;-63
2023/09/19 02:51:53;;;;;;;12.90;3.92;;;;;;;25.26;57.17;98598.88;2070521;28;20575;-62
2023/09/19 02:52:55;;;;;;;13.75;4.53;;;;;;;25.28;57.55;98604.91;2072180;28;20050;-62
2023/09/19 02:53:56;;;;;;;8.00;3.50;;;;;;;25.30;57.67;98605.47;2073793;28;20045;-63
2023/09/19 02:55:00;;;;;;;5.95;3.25;;;;;;;25.29;57.30;98606.53;2069643;28;20110;-62
2023/09/19 02:56:01;;;;;;;11.48;4.28;;;;;;;25.21;57.60;98609.66;2070500;28;20511;-63
2023/09/19 02:57:06;;;;;;;9.43;4.55;;;;;;;25.19;57.57;98608.03;2069175;28;20050;-63
2023/09/19 02:58:07;;;;;;;7.90;3.83;;;;;;;25.16;57.83;98608.53;2071089;28;20050;-63
2023/09/19 02:59:10;;;;;;;7.57;3.78;;;;;;;25.14;57.90;98607.94;2073138;28;20627;-63
2023/09/19 03:00:13;;;;;;;10.23;4.65;;;;;;;25.12;58.17;98601.09;2070613;28;20045;-62
2023/09/19 03:01:15;;;;;;;9.98;4.38;;;;;;;25.06;58.17;98607.50;2072561;28;20099;-63
2023/09/19 03:02:16;;;;;;;6.70;4.15;;;;;;;25.03;57.80;98606.09;2072722;28;20069;-63
2023/09/19 03:03:18;;;;;;;7.85;3.90;;;;;;;25.00;58.46;98603.88;2070132;28;20053;-62
2023/09/19 03:04:21;;;;;;;8.35;4.20;;;;;;;25.03;58.03;98603.38;2073383;28;20125;-62
2023/09/19 03:05:24;;;;;;;10.00;3.78;;;;;;;25.10;58.00;98604.06;2070189;28;20054;-62
2023/09/19 03:06:25;;;;;;;9.68;4.35;;;;;;;25.05;57.80;98606.69;2070202;28;20053;-62
2023/09/19 03:07:27;;;;;;;7.70;4.18;;;;;;;25.06;58.18;98607.50;2073430;28;20053;-62
2023/09/19 03:08:28;;;;;;;8.63;3.92;;;;;;;25.09;57.94;98615.97;2069877;28;20104;-62
2023/09/19 03:09:31;;;;;;;11.02;4.05;;;;;;;25.11;57.75;98616.56;2070812;28;20057;-62
2023/09/19 03:10:31;;;;;;;10.57;4.70;;;;;;;25.15;57.51;98614.19;2072372;28;20068;-63
2023/09/19 03:11:35;;;;;;;14.38;4.00;;;;;;;25.17;57.76;98612.88;2075992;28;20057;-62
2023/09/19 03:12:37;;;;;;;14.35;5.00;;;;;;;25.16;57.93;98613.97;2073688;28;20061;-62
2023/09/19 03:13:41;;;;;;;10.90;4.35;;;;;;;25.17;57.40;98607.44;2072329;28;20061;-62
2023/09/19 03:14:41;;;;;;;10.48;4.25;;;;;;;25.19;57.26;98613.47;2067952;28;20424;-63
2023/09/19 03:15:46;;;;;;;14.55;5.10;;;;;;;25.25;57.54;98611.66;2070011;28;20045;-63
2023/09/19 03:16:47;;;;;;;10.25;3.83;;;;;;;25.27;56.74;98606.81;2070997;28;20045;-62
2023/09/19 03:17:51;;;;;;;10.05;4.30;;;;;;;25.31;57.21;98607.94;2071442;28;20054;-62
2023/09/19 03:18:53;;;;;;;11.63;4.63;;;;;;;25.29;57.26;98609.25;2071956;28;20152;-63
2023/09/19 03:19:59;;;;;;;9.95;4.55;;;;;;;25.32;56.74;98608.75;2071474;28;20141;-62
2023/09/19 03:20:59;;;;;;;10.00;4.15;;;;;;;25.30;56.74;98609.00;2070863;28;20416;-62
2023/09/19 03:22:02;;;;;;;11.63;4.35;;;;;;;25.31;56.98;98607.94;2074445;28;20053;-62
2023/09/19 03:23:05;;;;;;;6.82;3.63;;;;;;;25.27;57.23;98614.09;2071242;28;20056;-63
2023/09/19 03:24:06;;;;;;;7.88;4.22;;;;;;;25.25;57.37;98603.50;2072900;28;20052;-63
2023/09/19 03:25:10;;;;;;;6.32;3.92;;;;;;;25.24;57.46;98604.59;2071022;28;20049;-62
2023/09/19 03:26:13;;;;;;;8.63;3.50;;;;;;;25.22;57.35;98604.00;2069943;28;20057;-63
2023/09/19 03:27:15;;;;;;;10.90;4.07;;;;;;;25.22;57.13;98595.84;2070818;28;20046;-62
2023/09/19 03:28:16;;;;;;;12.63;4.47;;;;;;;25.26;56.94;98596.16;2070461;28;20529;-63
2023/09/19 03:29:18;;;;;;;10.60;4.80;;;;;;;25.29;56.80;98601.09;2069082;28;20089;-63
2023/09/19 03:30:19;;;;;;;9.18;5.18;;;;;;;25.30;57.27;98594.63;2072326;28;20049;-62
2023/09/19 03:31:21;;;;;;;12.40;4.22;;;;;;;25.29;56.95;98590.25;2073017;28;20061;-62
2023/09/19 03:32:23;;;;;;;9.52;3.53;;;;;;;25.27;57.00;98597.81;2068125;28;20042;-62
2023/09/19 03:33:25;;;;;;;10.05;4.28;;;;;;;25.29;57.15;98590.25;2070416;28;20057;-62
2023/09/19 03:34:26;;;;;;;9.50;4.00;;;;;;;25.28;56.81;98588.63;2070385;28;20099;-63
2023/09/19 03:35:32;;;;;;;8.13;4.22;;;;;;;25.29;56.73;98588.34;2072959;28;20811;-63
2023/09/19 03:36:34;;;;;;;10.25;4.60;;;;;;;25.32;56.87;98584.31;2069690;28;20512;-62
2023/09/19 03:37:35;;;;;;;11.60;4.35;;;;;;;25.31;56.58;98583.50;2072375;28;20049;-63
2023/09/19 03:38:37;;;;;;;8.30;4.00;;;;;;;25.27;57.05;98586.94;2073342;28;20450;-63
2023/09/19 03:39:39;;;;;;;9.35;3.97;;;;;;;25.25;57.15;98583.69;2070746;28;20232;-63
2023/09/19 03:40:41;;;;;;;10.05;4.47;;;;;;;25.27;57.06;98581.53;2072332;28;20685;-62
2023/09/19 03:41:42;;;;;;;15.45;4.03;;;;;;;25.26;57.28;98575.28;2074311;28;20053;-62
2023/09/19 03:42:44;;;;;;;11.30;3.83;;;;;;;25.24;56.85;98572.00;2071202;28;20076;-62
2023/09/19 03:43:45;;;;;;;11.95;5.03;;;;;;;25.25;57.27;98575.53;2068469;28;20483;-63
2023/09/19 03:44:47;;;;;;;8.50;4.47;;;;;;;25.22;57.08;98573.31;2074667;28;20049;-63
2023/09/19 03:45:48;;;;;;;9.18;3.78;;;;;;;25.19;57.30;98574.63;2073122;28;20054;-63
2023/09/19 03:46:50;;;;;;;16.65;4.53;;;;;;;25.24;57.21;98582.03;2070342;28;20057;-64
2023/09/19 03:47:52;;;;;;;7.22;4.30;;;;;;;25.27;57.32;98573.38;2068787;28;20065;-64
2023/09/19 03:48:54;;;;;;;8.57;4.03;;;;;;;25.33;56.94;98580.56;2070543;28;20057;-63
2023/09/19 03:49:55;;;;;;;8.95;3.42;;;;;;;25.32;56.54;98574.28;2070114;28;20535;-65
2023/09/19 03:50:58;;;;;;;13.60;4.40;;;;;;;25.22;57.21;98579.56;2073924;28;20049;-63
2023/09/19 03:51:59;;;;;;;14.65;4.72;;;;;;;25.06;57.74;98575.75;2072276;28;20600;-63
2023/09/19 03:53:01;;;;;;;15.07;4.70;;;;;;;25.10;57.27;98576.91;2070449;28;20046;-63
2023/09/19 03:54:04;;;;;;;6.63;3.90;;;;;;;25.16;57.68;98577.84;2070581;28;20049;-63
2023/09/19 03:55:06;;;;;;;12.23;4.00;;;;;;;25.17;57.69;98574.06;2073980;28;20808;-63
2023/09/19 03:56:08;;;;;;;7.47;5.22;;;;;;;25.18;57.45;98571.13;2070943;28;20045;-63
2023/09/19 03:57:10;;;;;;;7.90;3.90;;;;;;;25.19;57.13;98572.75;2069035;28;20049;-63
2023/09/19 03:58:11;;;;;;;14.30;4.45;;;;;;;25.13;57.57;98579.13;2071379;28;20050;-63
2023/09/19 03:59:13;;;;;;;15.15;5.47;;;;;;;25.08;57.45;98572.81;2071739;28;20401;-63
2023/09/19 04:00:18;;;;;;;13.05;4.55;;;;;;;25.03;57.92;98575.44;2070633;28;20570;-63
2023/09/19 04:01:20;;;;;;;14.20;3.97;;;;;;;24.83;58.62;98581.34;2074531;28;20045;-63
2023/09/19 04:02:22;;;;;;;12.30;3.72;;;;;;;24.77;58.55;98582.31;2074777;28;20057;-63
2023/09/19 04:03:23;;;;;;;5.28;3.15;;;;;;;24.78;58.29;98579.38;2073311;28;20049;-63
2023/09/19 04:04:25;;;;;;;12.27;4.18;;;;;;;24.68;58.72;98577.31;2075133;28;20146;-63
2023/09/19 04:05:26;;;;;;;13.45;4.22;;;;;;;24.58;59.48;98579.84;2074737;28;20045;-63
2023/09/19 04:06:30;;;;;;;11.90;5.22;;;;;;;24.50;59.32;98575.63;2073913;28;20053;-63
2023/09/19 04:07:34;;;;;;;11.85;4.85;;;;;;;24.50;59.76;98574.81;2072892;28;20045;-64
2023/09/19 04:08:37;;;;;;;10.65;4.88;;;;;;;24.45;59.65;98578.25;2071991;28;20061;-63
2023/09/19 04:09:39;;;;;;;9.95;4.30;;;;;;;24.48;59.68;98582.38;2072336;28;20050;-63
2023/09/19 04:10:43;;;;;;;12.60;4.63;;;;;;;24.61;58.81;98581.25;2074065;28;20050;-63
2023/09/19 04:11:45;;;;;;;11.68;4.45;;;;;;;24.64;59.09;98580.75;2073743;28;20057;-63
2023/09/19 04:12:53;;;;;;;9.60;4.88;;;;;;;24.66;59.13;98578.63;2071151;28;20099;-63
2023/09/19 04:13:55;;;;;;;9.93;4.20;;;;;;;24.79;58.74;98591.84;2073032;28;20076;-63
2023/09/19 04:14:56;;;;;;;11.00;4.55;;;;;;;24.90;58.26;98588.25;2062460;28;20085;-63
2023/09/19 04:15:58;;;;;;;9.80;3.78;;;;;;;24.96;57.63;98586.44;2074635;28;20500;-62
2023/09/19 04:16:59;;;;;;;11.02;4.60;;;;;;;24.99;57.90;98585.97;2071810;28;20689;-63
2023/09/19 04:18:00;;;;;;;15.18;5.65;;;;;;;24.91;57.66;98583.66;2070588;28;20060;-63
2023/09/19 04:19:02;;;;;;;11.23;4.07;;;;;;;24.84;58.21;98583.81;2070414;28;20057;-63
2023/09/19 04:20:06;;;;;;;9.95;4.35;;;;;;;24.80;58.47;98581.84;2074302;28;20062;-63
2023/09/19 04:21:08;;;;;;;13.90;4.05;;;;;;;24.81;58.11;98583.47;2070729;28;20719;-63
2023/09/19 04:22:12;;;;;;;8.10;3.65;;;;;;;24.83;58.25;98587.59;2069610;28;20053;-62
2023/09/19 04:23:14;;;;;;;9.50;4.25;;;;;;;24.85;58.30;98590.06;2069128;28;20060;-62
2023/09/19 04:24:15;;;;;;;8.98;5.05;;;;;;;24.88;58.38;98586.88;2071352;28;20049;-62
2023/09/19 04:25:17;;;;;;;12.10;4.55;;;;;;;24.82;58.10;98585.94;2072480;28;20504;-63
2023/09/19 04:26:18;;;;;;;9.85;4.22;;;;;;;24.79;58.38;98585.63;2075155;28;20102;-62
2023/09/19 04:27:20;;;;;;;7.85;4.45;;;;;;;24.82;58.53;98587.84;2074825;28;20115;-62
2023/09/19 04:28:21;;;;;;;8.65;3.78;;;;;;;24.81;58.02;98586.19;2074908;28;20053;-63
2023/09/19 04:29:26;;;;;;;9.20;5.00;;;;;;;24.73;58.49;98590.13;2071673;28;20050;-63
2023/09/19 04:30:27;;;;;;;10.65;5.38;;;;;;;24.69;58.98;98603.38;2075562;28;20073;-62
2023/09/19 04:31:29;;;;;;;11.63;4.72;;;;;;;24.61;58.67;98597.53;2074192;28;20054;-63
2023/09/19 04:32:32;;;;;;;10.13;4.03;;;;;;;24.50;58.92;98593.78;2074171;28;20041;-62
2023/09/19 04:33:35;;;;;;;16.67;4.93;;;;;;;24.40;59.78;98588.13;2071826;28;20049;-62
2023/09/19 04:34:35;;;;;;;14.77;4.43;;;;;;;24.50;59.02;98593.78;2074446;28;20048;-63
2023/09/19 04:35:38;;;;;;;13.60;5.28;;;;;;;24.54;58.86;98589.50;2075502;28;20106;-63
2023/09/19 04:36:39;;;;;;;14.82;3.90;;;;;;;24.61;58.62;98592.91;2075678;28;20530;-63
2023/09/19 04:37:42;;;;;;;6.97;5.72;;;;;;;24.65;58.20;98590.53;2073380;28;20053;-63
2023/09/19 04:38:44;;;;;;;13.25;4.75;;;;;;;24.66;58.43;98595.72;2071403;28;20053;-63
2023/09/19 04:39:45;;;;;;;16.13;4.57;;;;;;;24.78;58.09;98592.13;2071532;28;21797;-64
2023/09/19 04:40:47;;;;;;;10.15;3.40;;;;;;;24.84;58.29;98604.69;2076162;28;20528;-63
2023/09/19 04:41:48;;;;;;;10.27;4.10;;;;;;;24.84;57.70;98599.28;2072559;28;20057;-63
2023/09/19 04:42:55;;;;;;;14.30;4.13;;;;;;;24.83;57.82;98603.88;2074551;28;20389;-63
2023/09/19 04:43:56;;;;;;;12.65;5.45;;;;;;;24.80;57.88;98595.41;2072612;28;20054;-63
2023/09/19 04:44:59;;;;;;;12.43;4.35;;;;;;;24.84;57.66;98596.56;2064776;28;20111;-63
2023/09/19 04:46:00;;;;;;;11.90;3.90;;;;;;;24.82;58.10;98599.50;2075419;28;20515;-64
2023/09/19 04:47:02;;;;;;;10.43;4.05;;;;;;;24.83;57.81;98600.34;2075022;28;20057;-63
2023/09/19 04:48:06;;;;;;;11.25;4.13;;;;;;;24.84;57.71;98610.94;2073109;28;20046;-65
2023/09/19 04:49:08;;;;;;;9.57;4.68;;;;;;;24.88;57.58;98603.97;2074820;28;20471;-62
2023/09/19 04:50:13;;;;;;;12.32;3.92;;;;;;;24.89;57.50;98608.31;2070027;28;20045;-64
2023/09/19 04:51:16;;;;;;;13.57;4.13;;;;;;;24.88;57.86;98611.28;2076624;28;20095;-63
2023/09/19 04:52:16;;;;;;;15.27;4.30;;;;;;;24.92;57.82;98610.53;2071955;28;20046;-64
2023/09/19 04:53:21;;;;;;;12.90;4.80;;;;;;;24.91;57.87;98616.22;2072909;28;20144;-64
2023/09/19 04:54:22;;;;;;;11.27;4.63;;;;;;;24.90;57.41;98614.56;2073229;28;20539;-63
2023/09/19 04:55:24;;;;;;;10.57;4.00;;;;;;;24.90;57.42;98614.56;2071720;28;20140;-63
2023/09/19 04:56:26;;;;;;;9.90;4.93;;;;;;;24.91;57.67;98621.66;2074036;28;20050;-62